createdAt,value
2022-10-07T00:01:43.823Z,12.40
2022-10-07T00:04:11.017Z,12.40
2022-10-07T00:06:38.475Z,12.40
2022-10-07T00:09:05.877Z,12.30
2022-10-07T00:11:33.364Z,12.30
2022-10-07T00:14:04.539Z,12.30
2022-10-07T00:16:36.175Z,12.30
2022-10-07T00:19:08.053Z,12.20
2022-10-07T00:21:37.773Z,12.20
2022-10-07T00:24:06.728Z,12.10
2022-10-07T00:26:36.801Z,12.10
2022-10-07T00:29:07.271Z,12.10
2022-10-07T00:31:36.943Z,12.10
2022-10-07T00:34:05.217Z,12.00
2022-10-07T00:36:36.083Z,12.00
2022-10-07T00:39:08.176Z,12.00
2022-10-07T00:41:45.920Z,11.90
2022-10-07T00:44:37.091Z,11.90
2022-10-07T00:47:07.326Z,11.90
2022-10-07T00:49:44.562Z,11.80
2022-10-07T00:52:14.464Z,11.80
2022-10-07T00:54:42.707Z,11.80
2022-10-07T00:57:10.980Z,11.70
2022-10-07T00:59:40.031Z,11.70
2022-10-07T01:02:09.093Z,11.70
2022-10-07T01:04:37.597Z,11.60
2022-10-07T01:07:04.811Z,11.60
2022-10-07T01:09:32.395Z,11.60
2022-10-07T01:12:23.423Z,11.60
2022-10-07T01:15:26.253Z,11.60
2022-10-07T01:18:24.921Z,11.50
2022-10-07T01:21:39.884Z,11.50
2022-10-07T01:24:34.361Z,11.50
2022-10-07T01:27:09.018Z,11.50
2022-10-07T01:30:05.990Z,11.50
2022-10-07T01:32:59.382Z,11.50
2022-10-07T01:35:35.701Z,11.50
2022-10-07T01:38:09.670Z,11.50
2022-10-07T01:40:51.640Z,11.50
2022-10-07T01:43:23.282Z,11.50
2022-10-07T01:45:55.041Z,11.50
2022-10-07T01:48:22.245Z,11.50
2022-10-07T01:50:52.004Z,11.50
2022-10-07T01:53:41.889Z,11.50
2022-10-07T01:56:26.877Z,11.50
2022-10-07T01:59:00.135Z,11.50
2022-10-07T02:01:55.382Z,11.50
2022-10-07T02:05:00.231Z,11.40
2022-10-07T02:07:38.888Z,11.40
2022-10-07T02:10:40.982Z,11.40
2022-10-07T02:13:32.280Z,11.40
2022-10-07T02:16:27.836Z,11.40
2022-10-07T02:18:57.173Z,11.40
2022-10-07T02:21:31.660Z,11.40
2022-10-07T02:24:01.567Z,11.40
2022-10-07T02:26:32.526Z,11.40
2022-10-07T02:29:03.723Z,11.40
2022-10-07T02:31:34.329Z,11.40
2022-10-07T02:34:23.445Z,11.40
2022-10-07T02:36:59.330Z,11.40
2022-10-07T02:43:48.749Z,11.50
2022-10-07T02:46:32.883Z,11.40
2022-10-07T02:49:08.090Z,11.50
2022-10-07T02:52:16.869Z,11.50
2022-10-07T02:55:00.585Z,11.50
2022-10-07T02:57:33.601Z,11.50
2022-10-07T03:00:05.154Z,11.50
2022-10-07T03:03:02.879Z,11.50
2022-10-07T03:05:30.933Z,11.40
2022-10-07T03:08:08.632Z,11.50
2022-10-07T03:10:36.060Z,11.50
2022-10-07T03:13:06.208Z,11.50
2022-10-07T03:15:41.844Z,11.50
2022-10-07T03:18:26.631Z,11.50
2022-10-07T03:20:56.233Z,11.50
2022-10-07T03:23:25.267Z,11.50
2022-10-07T03:25:54.506Z,11.50
2022-10-07T03:28:25.757Z,11.50
2022-10-07T03:30:54.029Z,11.40
2022-10-07T03:33:25.965Z,11.40
2022-10-07T03:35:53.978Z,11.40
2022-10-07T03:38:21.517Z,11.40
2022-10-07T03:40:49.458Z,11.40
2022-10-07T03:43:16.582Z,11.40
2022-10-07T03:45:45.255Z,11.40
2022-10-07T03:48:12.379Z,11.40
2022-10-07T03:50:39.826Z,11.40
2022-10-07T03:53:07.012Z,11.40
2022-10-07T03:55:34.858Z,11.40
2022-10-07T03:58:01.985Z,11.40
2022-10-07T04:00:29.219Z,11.30
2022-10-07T04:02:56.472Z,11.30
2022-10-07T04:05:23.693Z,11.30
2022-10-07T04:07:52.453Z,11.30
2022-10-07T04:10:21.645Z,11.30
2022-10-07T04:12:48.985Z,11.30
2022-10-07T04:15:16.169Z,11.30
2022-10-07T04:17:45.744Z,11.30
2022-10-07T04:20:16.628Z,11.30
2022-10-07T04:22:44.250Z,11.30
2022-10-07T04:25:31.412Z,11.30
2022-10-07T04:28:00.532Z,11.30
2022-10-07T04:30:34.900Z,11.30
2022-10-07T04:33:03.114Z,11.30
2022-10-07T04:35:31.347Z,11.30
2022-10-07T04:37:58.450Z,11.30
2022-10-07T04:40:27.598Z,11.20
2022-10-07T04:43:13.558Z,11.20
2022-10-07T04:45:40.849Z,11.20
2022-10-07T04:48:08.035Z,11.20
2022-10-07T04:50:38.874Z,11.10
2022-10-07T04:53:11.682Z,11.10
2022-10-07T04:55:41.334Z,11.10
2022-10-07T04:58:09.314Z,11.10
2022-10-07T05:00:48.460Z,11.10
2022-10-07T05:03:18.581Z,11.10
2022-10-07T05:05:49.697Z,11.10
2022-10-07T05:08:20.440Z,11.10
2022-10-07T05:10:48.196Z,11.00
2022-10-07T05:13:17.165Z,11.00
2022-10-07T05:15:55.687Z,11.00
2022-10-07T05:18:25.162Z,11.00
2022-10-07T05:20:52.458Z,11.00
2022-10-07T05:23:27.280Z,11.00
2022-10-07T05:26:01.989Z,11.00
2022-10-07T05:28:29.529Z,11.00
2022-10-07T05:31:13.732Z,11.00
2022-10-07T05:33:41.535Z,11.00
2022-10-07T05:36:10.417Z,10.90
2022-10-07T05:38:38.221Z,11.00
2022-10-07T05:41:09.913Z,10.90
2022-10-07T05:43:42.133Z,10.90
2022-10-07T05:46:14.136Z,10.90
2022-10-07T05:48:45.701Z,10.90
2022-10-07T05:53:56.954Z,10.90
2022-10-07T05:56:24.301Z,10.80
2022-10-07T05:58:53.030Z,10.90
2022-10-07T06:01:25.123Z,10.90
2022-10-07T06:03:55.747Z,10.80
2022-10-07T06:06:41.666Z,10.80
2022-10-07T06:09:29.903Z,10.80
2022-10-07T06:12:15.657Z,10.90
2022-10-07T06:14:42.754Z,10.90
2022-10-07T06:17:09.910Z,10.90
2022-10-07T06:19:40.178Z,10.90
2022-10-07T06:22:07.440Z,10.90
2022-10-07T06:24:35.373Z,10.90
2022-10-07T06:27:02.760Z,10.90
2022-10-07T06:29:29.936Z,11.00
2022-10-07T06:31:57.015Z,11.00
2022-10-07T06:34:24.182Z,11.10
2022-10-07T06:36:51.307Z,11.10
2022-10-07T06:39:37.371Z,11.10
2022-10-07T06:42:04.782Z,11.20
2022-10-07T06:44:33.784Z,11.20
2022-10-07T06:47:00.900Z,11.30
2022-10-07T06:49:28.100Z,11.40
2022-10-07T06:51:55.238Z,11.40
2022-10-07T06:54:22.448Z,11.40
2022-10-07T06:56:49.852Z,11.50
2022-10-07T06:59:16.954Z,11.60
2022-10-07T07:01:44.030Z,11.60
2022-10-07T07:04:11.180Z,11.70
2022-10-07T07:06:39.276Z,11.80
2022-10-07T07:09:06.598Z,11.90
2022-10-07T07:11:37.121Z,11.90
2022-10-07T07:14:09.643Z,12.00
2022-10-07T07:16:37.205Z,12.10
2022-10-07T07:19:08.916Z,12.10
2022-10-07T07:21:41.152Z,12.20
2022-10-07T07:24:29.327Z,12.30
2022-10-07T07:27:35.146Z,12.40
2022-10-07T07:30:06.017Z,12.50
2022-10-07T07:32:33.066Z,12.60
2022-10-07T07:35:21.879Z,12.70
2022-10-07T07:37:49.066Z,12.80
2022-10-07T07:40:21.185Z,12.90
2022-10-07T07:42:49.192Z,13.00
2022-10-07T07:46:38.533Z,13.10
2022-10-07T07:49:06.771Z,13.20
2022-10-07T07:52:13.745Z,13.30
2022-10-07T07:54:42.158Z,13.40
2022-10-07T07:57:10.370Z,13.50
2022-10-07T07:59:38.382Z,13.60
2022-10-07T08:02:06.744Z,13.70
2022-10-07T08:04:33.863Z,13.80
2022-10-07T08:07:00.955Z,13.90
2022-10-07T08:09:28.004Z,13.90
2022-10-07T08:11:56.496Z,14.00
2022-10-07T08:14:23.664Z,14.10
2022-10-07T08:16:51.582Z,14.20
2022-10-07T08:19:18.806Z,14.20
2022-10-07T08:21:46.061Z,14.30
2022-10-07T08:24:14.127Z,14.40
2022-10-07T08:26:41.353Z,14.50
2022-10-07T08:29:08.529Z,14.50
2022-10-07T08:31:36.058Z,14.60
2022-10-07T08:34:05.305Z,14.70
2022-10-07T08:36:34.278Z,14.80
2022-10-07T08:39:02.865Z,14.90
2022-10-07T08:41:42.096Z,15.00
2022-10-07T08:44:20.805Z,15.00
2022-10-07T08:46:51.002Z,15.20
2022-10-07T08:49:30.956Z,15.20
2022-10-07T08:52:17.730Z,15.30
2022-10-07T08:54:44.914Z,15.40
2022-10-07T08:57:24.041Z,15.60
2022-10-07T08:59:59.518Z,15.60
2022-10-07T09:02:29.706Z,15.70
2022-10-07T09:05:22.370Z,15.80
2022-10-07T09:07:56.106Z,16.00
2022-10-07T09:10:35.063Z,16.10
2022-10-07T09:13:28.363Z,16.20
2022-10-07T09:16:15.036Z,16.30
2022-10-07T09:18:51.189Z,16.40
2022-10-07T09:21:42.511Z,16.60
2022-10-07T09:24:26.153Z,16.70
2022-10-07T09:27:01.698Z,16.80
2022-10-07T09:29:31.013Z,17.00
2022-10-07T09:31:58.445Z,17.10
2022-10-07T09:34:31.662Z,17.20
2022-10-07T09:37:21.234Z,17.30
2022-10-07T09:39:54.759Z,17.40
2022-10-07T09:42:33.837Z,17.60
2022-10-07T09:45:32.164Z,17.80
2022-10-07T09:48:17.008Z,18.20
2022-10-07T09:50:44.922Z,18.60
2022-10-07T09:53:24.056Z,19.00
2022-10-07T09:55:55.107Z,19.30
2022-10-07T09:58:27.559Z,19.70
2022-10-07T10:01:01.592Z,20.10
2022-10-07T10:03:35.314Z,20.40
2022-10-07T10:06:09.301Z,20.70
2022-10-07T10:08:43.567Z,21.00
2022-10-07T10:11:31.039Z,21.40
2022-10-07T10:13:58.165Z,21.70
2022-10-07T10:16:46.988Z,22.00
2022-10-07T10:19:27.952Z,22.30
2022-10-07T10:21:58.066Z,22.50
2022-10-07T10:25:09.170Z,22.80
2022-10-07T10:28:03.981Z,22.90
2022-10-07T10:30:35.471Z,23.20
2022-10-07T10:33:39.218Z,23.30
2022-10-07T10:36:20.970Z,23.40
2022-10-07T10:39:01.671Z,23.60
2022-10-07T10:41:48.807Z,23.70
2022-10-07T10:44:40.334Z,23.90
2022-10-07T10:47:28.194Z,24.00
2022-10-07T10:50:32.544Z,24.20
2022-10-07T10:53:13.652Z,24.40
2022-10-07T10:56:12.477Z,24.60
2022-10-07T10:59:04.103Z,24.70
2022-10-07T11:01:42.510Z,24.90
2022-10-07T11:04:46.832Z,25.00
2022-10-07T11:07:37.745Z,25.00
2022-10-07T11:10:25.021Z,25.20
2022-10-07T11:13:15.833Z,25.30
2022-10-07T11:16:06.164Z,25.40
2022-10-07T11:19:24.816Z,25.60
2022-10-07T11:21:55.144Z,25.80
2022-10-07T11:24:34.858Z,25.80
2022-10-07T11:27:19.604Z,25.90
2022-10-07T11:30:33.929Z,26.00
2022-10-07T11:33:11.972Z,26.00
2022-10-07T11:35:49.568Z,26.10
2022-10-07T11:38:31.485Z,26.10
2022-10-07T11:41:13.783Z,26.00
2022-10-07T11:44:00.713Z,25.90
2022-10-07T11:46:43.436Z,25.80
2022-10-07T11:49:44.486Z,25.80
2022-10-07T11:52:26.878Z,25.80
2022-10-07T11:55:27.205Z,25.80
2022-10-07T11:58:04.429Z,25.80
2022-10-07T12:00:35.819Z,25.90
2022-10-07T12:03:45.966Z,26.10
2022-10-07T12:06:13.176Z,26.10
2022-10-07T12:08:44.274Z,26.20
2022-10-07T12:11:16.907Z,26.30
2022-10-07T12:13:50.717Z,26.40
2022-10-07T12:16:24.011Z,26.50
2022-10-07T12:19:13.206Z,26.60
2022-10-07T12:22:05.626Z,26.70
2022-10-07T12:24:38.900Z,26.80
2022-10-07T12:27:17.914Z,26.90
2022-10-07T12:29:50.969Z,27.00
2022-10-07T12:32:52.251Z,27.10
2022-10-07T12:35:37.020Z,27.20
2022-10-07T12:38:42.810Z,27.30
2022-10-07T12:41:44.050Z,27.50
2022-10-07T12:44:23.910Z,27.70
2022-10-07T12:47:08.397Z,27.90
2022-10-07T12:49:47.109Z,28.00
2022-10-07T12:52:42.299Z,28.00
2022-10-07T12:55:17.031Z,28.10
2022-10-07T12:57:52.575Z,28.20
2022-10-07T13:00:25.226Z,28.30
2022-10-07T13:03:29.523Z,28.40
2022-10-07T13:06:08.557Z,28.40
2022-10-07T13:09:03.022Z,28.50
2022-10-07T13:11:54.776Z,28.60
2022-10-07T13:14:50.802Z,28.50
2022-10-07T13:17:59.616Z,28.50
2022-10-07T13:21:04.316Z,28.40
2022-10-07T13:23:32.328Z,28.40
2022-10-07T13:26:03.240Z,28.40
2022-10-07T13:28:47.629Z,28.40
2022-10-07T13:31:26.396Z,28.30
2022-10-07T13:33:56.052Z,28.30
2022-10-07T13:36:30.749Z,28.30
2022-10-07T13:39:33.273Z,28.30
2022-10-07T13:42:02.252Z,28.30
2022-10-07T13:44:32.709Z,28.30
2022-10-07T13:47:06.162Z,28.30
2022-10-07T13:49:47.237Z,28.20
2022-10-07T13:52:39.748Z,28.20
2022-10-07T13:55:31.149Z,28.10
2022-10-07T13:58:02.073Z,28.10
2022-10-07T14:00:34.076Z,28.20
2022-10-07T14:03:02.111Z,28.20
2022-10-07T14:05:32.083Z,28.30
2022-10-07T14:08:15.252Z,28.30
2022-10-07T14:11:21.838Z,28.40
2022-10-07T14:13:49.020Z,28.50
2022-10-07T14:16:23.291Z,28.50
2022-10-07T14:18:52.891Z,28.50
2022-10-07T14:21:20.035Z,28.50
2022-10-07T14:23:47.527Z,28.50
2022-10-07T14:26:16.412Z,28.60
2022-10-07T14:33:29.797Z,28.80
2022-10-07T14:36:19.139Z,29.10
2022-10-07T14:38:49.788Z,29.20
2022-10-07T14:41:20.993Z,29.30
2022-10-07T14:43:51.946Z,29.40
2022-10-07T14:46:24.227Z,29.40
2022-10-07T14:48:53.905Z,29.40
2022-10-07T14:51:27.751Z,29.40
2022-10-07T14:54:07.452Z,29.40
2022-10-07T14:56:39.223Z,29.20
2022-10-07T14:59:15.421Z,29.00
2022-10-07T15:01:50.325Z,28.80
2022-10-07T15:04:17.595Z,28.70
2022-10-07T15:06:50.039Z,28.50
2022-10-07T15:09:18.819Z,28.30
2022-10-07T15:11:46.051Z,28.10
2022-10-07T15:14:13.217Z,27.90
2022-10-07T15:16:41.759Z,27.80
2022-10-07T15:19:09.456Z,27.70
2022-10-07T15:21:36.575Z,27.60
2022-10-07T15:24:03.901Z,27.40
2022-10-07T15:26:31.399Z,27.30
2022-10-07T15:29:00.009Z,27.10
2022-10-07T15:31:30.194Z,26.80
2022-10-07T15:33:58.124Z,26.60
2022-10-07T15:36:29.183Z,26.30
2022-10-07T15:38:59.251Z,26.00
2022-10-07T15:41:32.113Z,25.60
2022-10-07T15:44:02.146Z,25.30
2022-10-07T15:46:29.776Z,25.00
2022-10-07T15:48:59.376Z,24.70
2022-10-07T15:51:27.793Z,24.50
2022-10-07T15:53:55.142Z,24.20
2022-10-07T15:56:25.558Z,23.90
2022-10-07T15:58:53.425Z,23.70
2022-10-07T16:01:20.980Z,23.50
2022-10-07T16:03:50.149Z,23.30
2022-10-07T16:07:36.012Z,23.10
2022-10-07T16:10:21.915Z,22.90
2022-10-07T16:12:49.220Z,22.70
2022-10-07T16:15:16.728Z,22.60
2022-10-07T16:17:43.813Z,22.40
2022-10-07T16:20:11.702Z,22.30
2022-10-07T16:22:38.891Z,22.20
2022-10-07T16:25:06.683Z,22.00
2022-10-07T16:27:52.389Z,21.80
2022-10-07T16:30:38.126Z,21.70
2022-10-07T16:33:05.178Z,21.60
2022-10-07T16:35:32.259Z,21.50
2022-10-07T16:37:59.740Z,21.40
2022-10-07T16:40:26.881Z,21.20
2022-10-07T16:42:53.994Z,21.10
2022-10-07T16:45:23.268Z,21.00
2022-10-07T16:47:50.458Z,20.90
2022-10-07T16:50:17.915Z,20.80
2022-10-07T16:52:48.089Z,20.70
2022-10-07T16:55:15.482Z,20.60
2022-10-07T16:57:42.641Z,20.40
2022-10-07T17:00:10.981Z,20.40
2022-10-07T17:02:38.122Z,20.20
2022-10-07T17:05:05.836Z,20.10
2022-10-07T17:07:33.344Z,20.00
2022-10-07T17:10:00.506Z,19.90
2022-10-07T17:12:27.695Z,19.80
2022-10-07T17:14:54.846Z,19.60
2022-10-07T17:17:22.019Z,19.50
2022-10-07T17:19:49.207Z,19.40
2022-10-07T17:22:16.546Z,19.30
2022-10-07T17:24:43.713Z,19.20
2022-10-07T17:27:11.489Z,19.10
2022-10-07T17:29:38.780Z,19.00
2022-10-07T17:32:07.746Z,18.90
2022-10-07T17:34:34.839Z,18.80
2022-10-07T17:37:02.256Z,18.70
2022-10-07T17:39:31.247Z,18.60
2022-10-07T17:41:58.455Z,18.50
2022-10-07T17:44:25.878Z,18.40
2022-10-07T17:46:53.236Z,18.30
2022-10-07T17:49:20.778Z,18.20
2022-10-07T17:51:47.987Z,18.20
2022-10-07T17:54:15.507Z,18.10
2022-10-07T17:56:44.619Z,18.00
2022-10-07T17:59:12.565Z,17.90
2022-10-07T18:01:40.520Z,17.80
2022-10-07T18:04:15.573Z,17.70
2022-10-07T18:06:46.247Z,17.60
2022-10-07T18:09:18.519Z,17.50
2022-10-07T18:12:04.903Z,17.50
2022-10-07T18:14:53.733Z,17.40
2022-10-07T18:17:21.846Z,17.30
2022-10-07T18:19:48.990Z,17.20
2022-10-07T18:22:16.136Z,17.10
2022-10-07T18:24:43.367Z,17.00
2022-10-07T18:27:10.507Z,16.90
2022-10-07T18:29:38.349Z,16.90
2022-10-07T18:33:20.770Z,16.80
2022-10-07T18:35:47.886Z,16.70
2022-10-07T18:38:52.338Z,16.60
2022-10-07T18:41:19.949Z,16.50
2022-10-07T18:43:47.194Z,16.40
2022-10-07T18:46:19.250Z,16.30
2022-10-07T18:48:49.675Z,16.20
2022-10-07T18:51:18.088Z,16.10
2022-10-07T18:53:49.207Z,16.00
2022-10-07T18:56:24.321Z,15.90
2022-10-07T18:58:53.518Z,15.90
2022-10-07T19:01:30.346Z,15.80
2022-10-07T19:04:01.838Z,15.70
2022-10-07T19:06:32.387Z,15.70
2022-10-07T19:09:06.045Z,15.60
2022-10-07T19:11:33.626Z,15.50
2022-10-07T19:14:01.667Z,15.50
2022-10-07T19:16:38.972Z,15.40
2022-10-07T19:19:14.923Z,15.40
2022-10-07T19:21:42.685Z,15.40
2022-10-07T19:24:09.889Z,15.30
2022-10-07T19:26:42.876Z,15.30
2022-10-07T19:29:11.068Z,15.20
2022-10-07T19:31:42.179Z,15.20
2022-10-07T19:34:22.528Z,15.10
2022-10-07T19:36:50.638Z,15.10
2022-10-07T19:39:21.383Z,15.10
2022-10-07T19:41:49.152Z,15.00
2022-10-07T19:44:16.603Z,15.00
2022-10-07T19:46:45.616Z,15.00
2022-10-07T19:49:13.123Z,14.90
2022-10-07T19:51:41.967Z,14.90
2022-10-07T19:54:10.834Z,14.80
2022-10-07T19:56:40.652Z,14.80
2022-10-07T19:59:14.059Z,14.80
2022-10-07T20:01:44.586Z,14.70
2022-10-07T20:04:19.056Z,14.70
2022-10-07T20:06:46.756Z,14.60
2022-10-07T20:09:20.380Z,14.60
2022-10-07T20:11:48.076Z,14.60
2022-10-07T20:14:16.438Z,14.60
2022-10-07T20:16:44.150Z,14.50
2022-10-07T20:19:18.804Z,14.50
2022-10-07T20:21:46.749Z,14.50
2022-10-07T20:24:16.645Z,14.60
2022-10-07T20:26:45.109Z,14.50
2022-10-07T20:29:16.185Z,14.50
2022-10-07T20:31:44.718Z,14.50
2022-10-07T20:34:20.160Z,14.60
2022-10-07T20:36:47.330Z,14.60
2022-10-07T20:39:37.255Z,14.60
2022-10-07T20:42:21.570Z,14.60
2022-10-07T20:44:49.831Z,14.60
2022-10-07T20:47:18.429Z,14.60
2022-10-07T20:49:48.152Z,14.60
2022-10-07T20:52:18.783Z,14.60
2022-10-07T20:54:47.817Z,14.60
2022-10-07T20:57:19.269Z,14.70
2022-10-07T20:59:46.536Z,14.70
2022-10-07T21:02:16.488Z,14.80
2022-10-07T21:04:44.200Z,14.80
2022-10-07T21:07:11.422Z,14.80
2022-10-07T21:09:40.083Z,14.80
2022-10-07T21:12:14.551Z,14.90
2022-10-07T21:14:45.332Z,14.80
2022-10-07T21:17:12.832Z,14.80
2022-10-07T21:19:40.389Z,14.80
2022-10-07T21:22:08.208Z,14.80
2022-10-07T21:24:35.935Z,14.80
2022-10-07T21:27:08.030Z,14.80
2022-10-07T21:29:40.394Z,14.70
2022-10-07T21:32:10.413Z,14.70
2022-10-07T21:34:38.569Z,14.70
2022-10-07T21:37:05.750Z,14.70
2022-10-07T21:39:33.047Z,14.70
2022-10-07T21:42:00.215Z,14.60
2022-10-07T21:44:28.221Z,14.60
2022-10-07T21:46:55.691Z,14.60
2022-10-07T21:49:23.338Z,14.60
2022-10-07T21:51:50.511Z,14.60
2022-10-07T21:54:17.647Z,14.60
2022-10-07T21:56:47.484Z,14.60
2022-10-07T21:59:14.981Z,14.50
2022-10-07T22:01:43.270Z,14.50
2022-10-07T22:04:18.217Z,14.50
2022-10-07T22:07:04.532Z,14.50
2022-10-07T22:09:32.158Z,14.50
2022-10-07T22:11:59.489Z,14.50
2022-10-07T22:14:27.855Z,14.40
2022-10-07T22:16:55.340Z,14.40
2022-10-07T22:19:23.354Z,14.40
2022-10-07T22:21:50.861Z,14.40
2022-10-07T22:24:18.232Z,14.40
2022-10-07T22:26:47.917Z,14.40
2022-10-07T22:29:18.021Z,14.40
2022-10-07T22:31:46.134Z,14.30
2022-10-07T22:34:33.888Z,14.30
2022-10-07T22:37:01.536Z,14.30
2022-10-07T22:39:29.584Z,14.30
2022-10-07T22:41:58.722Z,14.30
2022-10-07T22:44:28.227Z,14.30
2022-10-07T22:46:56.835Z,14.30
2022-10-07T22:49:29.311Z,14.20
2022-10-07T22:51:58.301Z,14.20
2022-10-07T22:54:26.578Z,14.30
2022-10-07T22:56:53.952Z,14.30
2022-10-07T22:59:21.316Z,14.30
2022-10-07T23:01:48.467Z,14.30
2022-10-07T23:04:15.575Z,14.30
2022-10-07T23:06:42.731Z,14.30
2022-10-07T23:09:10.095Z,14.30
2022-10-07T23:11:37.386Z,14.30
2022-10-07T23:14:05.632Z,14.30
2022-10-07T23:16:34.247Z,14.30
2022-10-07T23:19:01.608Z,14.30
2022-10-07T23:21:36.476Z,14.30
2022-10-07T23:24:07.785Z,14.30
2022-10-07T23:26:37.143Z,14.30
2022-10-07T23:29:04.976Z,14.30
2022-10-07T23:31:33.282Z,14.30
2022-10-07T23:34:03.070Z,14.30
2022-10-07T23:36:31.398Z,14.30
2022-10-07T23:39:00.857Z,14.30
2022-10-07T23:41:30.981Z,14.20
2022-10-07T23:44:02.222Z,14.20
2022-10-07T23:46:33.211Z,14.20
2022-10-07T23:49:00.695Z,14.20
2022-10-07T23:51:29.108Z,14.20
2022-10-07T23:53:57.444Z,14.20
2022-10-07T23:56:24.873Z,14.20
2022-10-07T23:58:52.425Z,14.20
